Time;durP1;ratioP1;P1;durP2;ratioP2;P2;SDS_P1;SDS_P2;PMS_P1;PMS_P2;Temp;Humidity;BMP_temperature;BMP_pressure;BME280_temperature;BME280_humidity;BME280_pressure;Samples;Min_cycle;Max_cycle;Signal;HPM_P1;HPM_P2
2021/08/23 00:00:59;;;;;;;8.67;7.30;;;20.30;89.90;;;;;;5055772;28;20460;-75
2021/08/23 00:03:26;;;;;;;8.37;7.53;;;20.30;89.90;;;;;;5056069;28;20455;-75
2021/08/23 00:05:52;;;;;;;13.60;8.20;;;20.30;90.00;;;;;;5056283;28;20449;-75
2021/08/23 00:08:19;;;;;;;8.63;7.87;;;20.40;90.10;;;;;;5055971;28;20441;-75
2021/08/23 00:10:46;;;;;;;8.70;7.87;;;20.40;90.00;;;;;;5055941;28;20456;-75
2021/08/23 00:13:14;;;;;;;8.53;7.73;;;20.40;90.00;;;;;;5055814;28;20481;-75
2021/08/23 00:15:41;;;;;;;8.67;7.63;;;20.40;89.90;;;;;;5055854;28;20442;-75
2021/08/23 00:18:08;;;;;;;9.17;8.10;;;20.40;89.60;;;;;;5055724;28;20816;-75
2021/08/23 00:20:43;;;;;;;8.87;8.07;;;20.40;89.60;;;;;;5055796;28;20473;-75
2021/08/23 00:23:12;;;;;;;7.90;7.10;;;20.40;89.80;;;;;;5055738;28;20516;-75
2021/08/23 00:25:39;;;;;;;8.70;7.80;;;20.30;89.70;;;;;;5055718;28;20450;-75
2021/08/23 00:28:08;;;;;;;7.67;6.90;;;20.40;89.90;;;;;;5055831;28;20446;-75
2021/08/23 00:30:37;;;;;;;8.27;6.93;;;20.40;90.00;;;;;;5055255;28;20869;-75
2021/08/23 00:33:04;;;;;;;9.40;6.43;;;20.40;89.70;;;;;;5055127;28;21026;-75
2021/08/23 00:35:31;;;;;;;7.60;6.90;;;20.40;89.60;;;;;;5055216;28;21038;-75
2021/08/23 00:37:58;;;;;;;9.23;7.30;;;20.50;89.80;;;;;;5055093;28;20944;-75
2021/08/23 00:40:25;;;;;;;8.80;7.67;;;20.40;89.50;;;;;;5055318;28;20465;-75
2021/08/23 00:42:52;;;;;;;11.47;6.50;;;20.50;89.60;;;;;;5055909;28;20445;-75
2021/08/23 00:45:19;;;;;;;13.10;7.90;;;20.50;89.40;;;;;;5055033;28;20461;-75
2021/08/23 00:47:47;;;;;;;13.50;8.40;;;20.50;89.40;;;;;;5055268;28;20445;-75
2021/08/23 00:50:14;;;;;;;8.90;7.80;;;20.50;89.60;;;;;;5055176;28;20473;-75
2021/08/23 00:52:42;;;;;;;8.20;7.40;;;20.50;89.30;;;;;;5054224;28;20484;-75
2021/08/23 00:55:09;;;;;;;9.00;8.00;;;20.50;89.40;;;;;;5055079;28;20528;-75
2021/08/23 00:57:37;;;;;;;9.20;8.30;;;20.50;89.40;;;;;;5054546;28;20436;-75
2021/08/23 01:00:05;;;;;;;13.13;7.53;;;20.50;89.50;;;;;;5054467;28;20605;-75
2021/08/23 01:02:35;;;;;;;8.53;7.70;;;20.50;89.30;;;;;;5054986;28;20441;-75
2021/08/23 01:05:08;;;;;;;7.70;7.03;;;20.50;89.40;;;;;;5054959;28;20440;-75
2021/08/23 01:07:39;;;;;;;9.77;8.97;;;20.50;89.40;;;;;;5054953;28;20429;-75
2021/08/23 01:10:10;;;;;;;10.23;8.90;;;20.50;89.40;;;;;;5054808;28;20465;-75
2021/08/23 01:12:38;;;;;;;9.93;8.90;;;20.50;89.30;;;;;;5054729;28;20470;-75
2021/08/23 01:15:05;;;;;;;9.40;8.57;;;20.50;89.30;;;;;;5054715;28;20798;-75
2021/08/23 01:17:32;;;;;;;9.47;8.53;;;20.50;89.30;;;;;;5054669;28;20442;-75
2021/08/23 01:20:02;;;;;;;10.67;8.83;;;20.50;89.20;;;;;;5055425;28;20469;-75
2021/08/23 01:22:35;;;;;;;9.40;8.40;;;20.50;89.10;;;;;;5054824;28;20437;-75
2021/08/23 01:25:03;;;;;;;9.13;8.27;;;20.40;89.00;;;;;;5054649;28;20837;-75
2021/08/23 01:27:33;;;;;;;9.50;8.37;;;20.40;89.10;;;;;;5054488;28;20453;-75
2021/08/23 01:30:05;;;;;;;9.97;9.07;;;20.40;89.20;;;;;;5054701;28;20519;-75
2021/08/23 01:32:34;;;;;;;13.40;8.80;;;20.50;89.30;;;;;;5054362;28;20466;-75
2021/08/23 01:35:03;;;;;;;10.47;8.97;;;20.50;89.40;;;;;;5054358;28;20469;-75
2021/08/23 01:37:30;;;;;;;11.63;8.30;;;20.50;89.50;;;;;;5054266;28;20532;-75
2021/08/23 01:39:57;;;;;;;11.17;10.17;;;20.50;89.90;;;;;;5053819;28;20469;-75
2021/08/23 01:42:24;;;;;;;9.70;8.80;;;20.50;90.10;;;;;;5054200;28;20449;-75
2021/08/23 01:44:51;;;;;;;10.43;9.43;;;20.50;90.10;;;;;;5054140;28;20448;-75
2021/08/23 01:47:18;;;;;;;12.57;11.40;;;20.50;90.00;;;;;;5054124;28;20453;-75
2021/08/23 01:49:46;;;;;;;10.70;9.67;;;20.50;90.10;;;;;;5053712;28;20461;-75
2021/08/23 01:52:13;;;;;;;11.47;9.70;;;20.60;90.10;;;;;;5053997;28;20476;-75
2021/08/23 01:54:41;;;;;;;11.70;10.57;;;20.60;90.10;;;;;;5054351;28;20828;-75
2021/08/23 01:57:08;;;;;;;12.37;11.23;;;20.50;90.20;;;;;;5054182;28;20452;-75
2021/08/23 01:59:35;;;;;;;11.00;9.97;;;20.60;90.40;;;;;;5053380;28;20856;-75
2021/08/23 02:02:01;;;;;;;11.03;10.00;;;20.60;90.50;;;;;;5053856;28;20460;-75
2021/08/23 02:04:28;;;;;;;11.27;10.37;;;20.60;90.40;;;;;;5054265;28;20450;-75
2021/08/23 02:06:56;;;;;;;9.43;8.60;;;20.60;90.50;;;;;;5053795;28;20442;-75
2021/08/23 02:09:23;;;;;;;11.20;10.17;;;20.60;90.40;;;;;;5053655;28;20493;-75
2021/08/23 02:11:50;;;;;;;11.33;10.23;;;20.60;90.30;;;;;;5053630;28;20445;-75
2021/08/23 02:14:17;;;;;;;10.80;9.77;;;20.50;90.30;;;;;;5053657;28;20495;-75
2021/08/23 02:16:44;;;;;;;11.60;10.60;;;20.60;90.40;;;;;;5053314;28;20445;-75
2021/08/23 02:19:10;;;;;;;13.10;11.90;;;20.60;90.40;;;;;;5053524;28;20465;-75
2021/08/23 02:21:48;;;;;;;12.20;11.00;;;20.60;90.40;;;;;;5053605;28;20445;-75
2021/08/23 02:24:16;;;;;;;13.23;11.93;;;20.60;90.40;;;;;;5053556;28;20448;-75
2021/08/23 02:26:43;;;;;;;16.73;11.77;;;20.60;90.40;;;;;;5053477;28;20452;-75
2021/08/23 02:29:10;;;;;;;14.60;13.23;;;20.60;90.40;;;;;;5053414;28;20495;-75
2021/08/23 02:31:36;;;;;;;13.00;11.50;;;20.50;90.20;;;;;;5053450;28;20454;-75
2021/08/23 02:34:03;;;;;;;13.53;12.33;;;20.50;90.30;;;;;;5053070;28;21021;-75
2021/08/23 02:36:30;;;;;;;12.63;10.97;;;20.50;90.40;;;;;;5053671;28;20441;-75
2021/08/23 02:38:57;;;;;;;14.00;12.57;;;20.50;90.60;;;;;;5053302;28;20539;-75
2021/08/23 02:41:25;;;;;;;14.20;13.00;;;20.50;90.60;;;;;;5053046;28;20449;-75
2021/08/23 02:43:52;;;;;;;14.13;12.57;;;20.40;90.60;;;;;;5053333;28;20449;-75
2021/08/23 02:46:19;;;;;;;13.80;12.40;;;20.40;90.60;;;;;;5053298;28;20442;-75
2021/08/23 02:48:45;;;;;;;17.73;13.47;;;20.40;90.60;;;;;;5053218;28;20461;-75
2021/08/23 02:51:12;;;;;;;14.40;12.90;;;20.50;90.80;;;;;;5053503;28;20484;-75
2021/08/23 02:53:39;;;;;;;13.93;12.67;;;20.40;90.70;;;;;;5053140;28;20473;-75
2021/08/23 02:56:06;;;;;;;15.60;12.17;;;20.40;90.70;;;;;;5053205;28;20830;-75
2021/08/23 02:58:35;;;;;;;15.10;13.60;;;20.40;90.80;;;;;;5053113;28;20461;-75
2021/08/23 03:01:01;;;;;;;13.20;11.90;;;20.40;90.70;;;;;;5053047;28;20453;-75
2021/08/23 03:03:28;;;;;;;17.80;13.23;;;20.40;90.80;;;;;;5053113;28;20441;-75
2021/08/23 03:05:55;;;;;;;14.07;12.77;;;20.40;90.80;;;;;;5052844;28;20966;-75
2021/08/23 03:08:21;;;;;;;16.40;13.37;;;20.40;90.70;;;;;;5053052;28;20464;-75
2021/08/23 03:10:51;;;;;;;13.30;11.90;;;20.40;90.60;;;;;;5053091;28;20441;-75
2021/08/23 03:13:18;;;;;;;14.77;13.33;;;20.50;90.70;;;;;;5052988;28;20481;-75
2021/08/23 03:15:46;;;;;;;14.17;12.77;;;20.40;90.60;;;;;;5054674;28;20928;-75
2021/08/23 03:18:13;;;;;;;14.53;13.03;;;20.40;90.70;;;;;;5056908;28;20498;-74
2021/08/23 03:20:40;;;;;;;14.63;13.10;;;20.40;90.80;;;;;;5057025;28;20448;-75
2021/08/23 03:23:06;;;;;;;13.40;12.10;;;20.40;90.80;;;;;;5056854;28;20516;-75
2021/08/23 03:25:33;;;;;;;13.30;11.77;;;20.40;90.80;;;;;;5056523;28;20445;-75
2021/08/23 03:28:00;;;;;;;12.70;11.23;;;20.40;90.80;;;;;;5057002;28;20441;-75
2021/08/23 03:30:26;;;;;;;14.77;11.73;;;20.40;90.70;;;;;;5056311;28;21002;-75
2021/08/23 03:32:54;;;;;;;12.90;11.73;;;20.50;90.70;;;;;;5056627;28;20484;-75
2021/08/23 03:35:21;;;;;;;10.83;9.90;;;20.40;90.60;;;;;;5056369;28;20954;-75
2021/08/23 03:37:48;;;;;;;11.97;10.87;;;20.40;90.60;;;;;;5056553;28;20456;-75
2021/08/23 03:40:15;;;;;;;13.87;12.57;;;20.40;90.60;;;;;;5056148;28;20465;-75
2021/08/23 03:42:42;;;;;;;12.27;11.20;;;20.40;90.70;;;;;;5056202;28;20954;-75
2021/08/23 03:45:09;;;;;;;12.70;11.50;;;20.30;90.70;;;;;;5056469;28;20449;-75
2021/08/23 03:47:36;;;;;;;12.40;11.23;;;20.30;90.80;;;;;;5056409;28;20445;-75
2021/08/23 03:50:05;;;;;;;13.47;12.30;;;20.30;90.80;;;;;;5056257;28;20476;-75
2021/08/23 03:52:32;;;;;;;14.07;12.40;;;20.30;90.90;;;;;;5056231;28;20484;-75
2021/08/23 03:54:58;;;;;;;14.90;13.47;;;20.30;90.90;;;;;;5056231;28;20441;-75
2021/08/23 03:57:25;;;;;;;16.83;11.77;;;20.30;90.90;;;;;;5056233;28;20788;-75
2021/08/23 03:59:52;;;;;;;14.40;11.27;;;20.30;90.90;;;;;;5055714;28;20990;-75
2021/08/23 04:02:18;;;;;;;13.03;11.77;;;20.30;90.90;;;;;;5056093;28;20438;-75
2021/08/23 04:04:45;;;;;;;14.00;12.70;;;20.20;90.80;;;;;;5055767;28;20931;-75
2021/08/23 04:07:13;;;;;;;10.93;10.03;;;20.20;90.80;;;;;;5056007;28;20850;-75
2021/08/23 04:09:40;;;;;;;12.33;11.20;;;20.20;90.80;;;;;;5055943;28;20462;-75
2021/08/23 04:12:07;;;;;;;11.40;10.40;;;20.20;90.80;;;;;;5055943;28;20441;-75
2021/08/23 04:14:34;;;;;;;12.20;11.00;;;20.20;90.80;;;;;;5055533;28;20995;-75
2021/08/23 04:17:00;;;;;;;12.30;11.10;;;20.20;90.80;;;;;;5055883;28;20829;-75
2021/08/23 04:19:27;;;;;;;12.67;11.47;;;20.20;90.80;;;;;;5055707;28;20468;-75
2021/08/23 04:21:54;;;;;;;10.97;10.07;;;20.20;90.80;;;;;;5055445;28;20962;-75
2021/08/23 04:24:22;;;;;;;11.87;10.90;;;20.20;90.80;;;;;;5055942;28;20470;-75
2021/08/23 04:26:49;;;;;;;11.47;10.40;;;20.10;90.80;;;;;;5054464;28;20446;-75
2021/08/23 04:29:15;;;;;;;13.00;10.60;;;20.20;90.90;;;;;;5055515;28;20473;-75
2021/08/23 04:31:43;;;;;;;11.77;10.67;;;20.20;90.90;;;;;;5055610;28;20499;-75
2021/08/23 04:34:09;;;;;;;11.27;10.23;;;20.10;90.80;;;;;;5055456;28;20571;-75
2021/08/23 04:36:36;;;;;;;13.30;11.93;;;20.10;90.80;;;;;;5055489;28;20453;-75
2021/08/23 04:39:03;;;;;;;13.03;11.70;;;20.10;90.80;;;;;;5055410;28;20469;-75
2021/08/23 04:41:36;;;;;;;12.60;11.30;;;20.10;90.80;;;;;;5055469;28;20445;-76
2021/08/23 04:44:03;;;;;;;11.00;9.90;;;20.10;90.60;;;;;;5055632;28;20438;-75
2021/08/23 04:46:29;;;;;;;11.50;10.50;;;20.10;90.50;;;;;;5055415;28;20456;-75
2021/08/23 04:48:56;;;;;;;12.60;11.47;;;20.10;90.30;;;;;;5055421;28;20466;-75
2021/08/23 04:51:23;;;;;;;13.17;11.87;;;20.10;90.20;;;;;;5055216;28;20450;-75
2021/08/23 04:53:50;;;;;;;13.30;12.10;;;20.10;90.20;;;;;;5055067;28;20484;-75
2021/08/23 04:56:17;;;;;;;15.07;13.67;;;20.10;90.20;;;;;;5054856;28;20445;-75
2021/08/23 04:58:45;;;;;;;13.90;12.60;;;20.10;90.10;;;;;;5054976;28;20469;-75
2021/08/23 05:01:12;;;;;;;13.57;12.30;;;20.10;90.10;;;;;;5054929;28;20461;-75
2021/08/23 05:03:39;;;;;;;12.23;11.13;;;20.00;90.00;;;;;;5055192;28;20445;-75
2021/08/23 05:06:05;;;;;;;13.97;12.77;;;20.00;90.00;;;;;;5054941;28;20520;-75
2021/08/23 05:08:32;;;;;;;12.23;11.03;;;20.00;90.10;;;;;;5054807;28;20488;-75
2021/08/23 05:10:59;;;;;;;13.27;11.90;;;20.00;90.20;;;;;;5054814;28;20441;-75
2021/08/23 05:13:26;;;;;;;12.40;11.00;;;20.00;90.20;;;;;;5054711;28;20504;-75
2021/08/23 05:15:54;;;;;;;12.53;11.37;;;20.00;90.20;;;;;;5054732;28;20454;-76
2021/08/23 05:18:21;;;;;;;12.13;10.93;;;20.00;90.00;;;;;;5054218;28;20457;-76
2021/08/23 05:20:47;;;;;;;14.03;12.80;;;20.00;90.00;;;;;;5054263;28;20819;-76
2021/08/23 05:23:14;;;;;;;13.27;11.97;;;20.00;89.70;;;;;;5054109;28;20453;-76
2021/08/23 05:25:41;;;;;;;12.40;11.30;;;20.10;89.80;;;;;;5054438;28;20441;-76
2021/08/23 05:28:08;;;;;;;12.50;11.40;;;20.00;89.60;;;;;;5054183;28;20971;-76
2021/08/23 05:30:35;;;;;;;13.90;12.70;;;20.00;89.80;;;;;;5054456;28;20453;-76
2021/08/23 05:33:04;;;;;;;12.83;11.70;;;20.00;90.10;;;;;;5054031;28;20987;-76
2021/08/23 05:35:30;;;;;;;12.93;11.83;;;20.10;90.40;;;;;;5054074;28;20448;-76
2021/08/23 05:37:57;;;;;;;14.23;13.00;;;20.10;90.60;;;;;;5053933;28;20453;-76
2021/08/23 05:40:26;;;;;;;13.63;12.43;;;20.10;90.70;;;;;;5054525;28;20462;-76
2021/08/23 05:42:53;;;;;;;14.63;13.40;;;20.10;90.90;;;;;;5056614;28;20454;-76
2021/08/23 05:45:20;;;;;;;14.67;12.80;;;20.10;91.00;;;;;;5057138;28;20445;-76
2021/08/23 05:47:47;;;;;;;14.00;12.80;;;20.20;91.00;;;;;;5055015;28;20456;-76
2021/08/23 05:50:15;;;;;;;15.30;13.77;;;20.20;91.00;;;;;;5054001;28;20473;-76
2021/08/23 05:52:42;;;;;;;17.17;15.60;;;20.20;91.10;;;;;;5054100;28;20447;-76
2021/08/23 05:55:09;;;;;;;17.47;15.67;;;20.10;91.00;;;;;;5054085;28;20854;-76
2021/08/23 05:57:36;;;;;;;19.90;16.97;;;20.10;91.10;;;;;;5054027;28;20442;-76
2021/08/23 06:00:04;;;;;;;22.43;18.30;;;20.10;91.20;;;;;;5053583;28;20500;-76
2021/08/23 06:02:30;;;;;;;20.97;17.97;;;20.10;91.20;;;;;;5054122;28;20441;-76
2021/08/23 06:04:57;;;;;;;19.87;17.97;;;20.10;91.20;;;;;;5053878;28;20473;-76
2021/08/23 06:07:25;;;;;;;17.87;16.07;;;20.10;91.30;;;;;;5053920;28;20453;-76
2021/08/23 06:09:52;;;;;;;17.77;16.03;;;20.10;91.30;;;;;;5053395;28;20983;-76
2021/08/23 06:12:19;;;;;;;18.33;16.57;;;20.10;91.50;;;;;;5054338;28;20445;-76
2021/08/23 06:14:45;;;;;;;19.50;17.70;;;20.10;91.50;;;;;;5053909;28;20472;-76
2021/08/23 06:17:13;;;;;;;17.80;16.13;;;20.20;91.60;;;;;;5053681;28;20445;-76
2021/08/23 06:19:39;;;;;;;18.73;17.03;;;20.20;91.40;;;;;;5053607;28;20484;-76
2021/08/23 06:22:06;;;;;;;19.83;16.37;;;20.30;91.40;;;;;;5053571;28;20452;-76
2021/08/23 06:24:34;;;;;;;18.60;16.90;;;20.30;91.30;;;;;;5053574;28;20445;-76
2021/08/23 06:27:01;;;;;;;16.70;15.07;;;20.30;91.30;;;;;;5053516;28;20441;-76
2021/08/23 06:29:27;;;;;;;17.60;15.90;;;20.30;91.30;;;;;;5053159;28;20972;-76
2021/08/23 06:31:54;;;;;;;18.70;16.80;;;20.30;91.40;;;;;;5053490;28;20821;-76
2021/08/23 06:34:21;;;;;;;18.17;16.43;;;20.30;91.50;;;;;;5053331;28;20516;-76
2021/08/23 06:36:47;;;;;;;18.20;16.03;;;20.30;91.60;;;;;;5053405;28;20450;-76
2021/08/23 06:39:14;;;;;;;18.97;17.07;;;20.30;91.70;;;;;;5053052;28;20472;-76
2021/08/23 06:41:42;;;;;;;18.97;17.20;;;20.30;91.70;;;;;;5053444;28;20793;-76
2021/08/23 06:44:12;;;;;;;19.03;17.13;;;20.20;91.80;;;;;;5053322;28;20449;-76
2021/08/23 06:46:39;;;;;;;19.63;17.70;;;20.20;91.80;;;;;;5053054;28;20963;-76
2021/08/23 06:49:05;;;;;;;20.57;18.40;;;20.20;91.90;;;;;;5053481;28;20465;-76
2021/08/23 06:51:32;;;;;;;18.47;16.67;;;20.20;92.00;;;;;;5056165;28;20446;-76
2021/08/23 06:54:00;;;;;;;23.40;19.60;;;20.20;92.10;;;;;;5057061;28;21022;-76
2021/08/23 06:56:27;;;;;;;19.33;17.43;;;20.30;92.10;;;;;;5057376;28;20450;-76
2021/08/23 06:58:55;;;;;;;19.20;17.40;;;20.30;92.00;;;;;;5057061;28;20469;-76
2021/08/23 07:01:24;;;;;;;21.90;19.60;;;20.40;92.10;;;;;;5057582;28;20437;-76
2021/08/23 07:03:50;;;;;;;20.77;18.70;;;20.40;92.00;;;;;;5057267;28;20544;-76
2021/08/23 07:06:18;;;;;;;19.83;18.03;;;20.50;91.90;;;;;;5056929;28;20951;-76
2021/08/23 07:08:45;;;;;;;20.00;18.13;;;20.60;91.80;;;;;;5057118;28;20468;-76
2021/08/23 07:11:12;;;;;;;24.23;21.77;;;20.60;91.60;;;;;;5057145;28;20453;-75
2021/08/23 07:13:39;;;;;;;24.50;21.00;;;20.60;91.60;;;;;;5056705;28;20515;-75
2021/08/23 07:16:07;;;;;;;22.67;20.47;;;20.60;91.60;;;;;;5056740;28;20448;-75
2021/08/23 07:18:35;;;;;;;26.97;20.20;;;20.60;91.60;;;;;;5056904;28;20468;-75
2021/08/23 07:21:01;;;;;;;25.60;22.97;;;20.70;91.60;;;;;;5056949;28;20456;-75
2021/08/23 07:23:28;;;;;;;22.60;20.30;;;20.70;91.50;;;;;;5057127;28;20445;-75
2021/08/23 07:25:55;;;;;;;24.47;22.07;;;20.70;91.40;;;;;;5056847;28;20446;-75
2021/08/23 07:28:22;;;;;;;25.80;23.10;;;20.80;91.40;;;;;;5056703;28;20485;-75
2021/08/23 07:30:49;;;;;;;28.77;25.77;;;20.90;91.50;;;;;;5056740;28;20456;-75
2021/08/23 07:33:17;;;;;;;23.43;21.07;;;20.90;91.50;;;;;;5056416;28;20441;-75
2021/08/23 07:35:43;;;;;;;27.33;24.60;;;21.10;91.40;;;;;;5056320;28;20940;-75
2021/08/23 07:38:10;;;;;;;28.30;25.60;;;21.30;91.30;;;;;;5056672;28;20449;-75
2021/08/23 07:40:37;;;;;;;29.30;26.30;;;21.40;90.90;;;;;;5056540;28;20491;-75
2021/08/23 07:43:04;;;;;;;29.90;26.90;;;21.50;90.60;;;;;;5056502;28;20441;-75
2021/08/23 07:45:30;;;;;;;28.93;25.97;;;21.60;90.30;;;;;;5056136;28;20928;-75
2021/08/23 07:47:57;;;;;;;32.73;29.07;;;21.60;90.10;;;;;;5056419;28;20453;-75
2021/08/23 07:50:25;;;;;;;33.47;30.07;;;21.70;89.90;;;;;;5056370;28;20469;-75
2021/08/23 07:52:52;;;;;;;39.30;35.13;;;21.70;89.60;;;;;;5056333;28;20442;-75
2021/08/23 07:55:18;;;;;;;36.00;32.30;;;21.90;89.00;;;;;;5056190;28;20477;-76
2021/08/23 07:57:47;;;;;;;37.00;32.87;;;22.10;88.70;;;;;;5055913;28;20928;-76
2021/08/23 08:00:16;;;;;;;33.90;30.40;;;22.30;87.90;;;;;;5055875;28;20603;-75
2021/08/23 08:02:43;;;;;;;36.47;32.67;;;22.40;86.60;;;;;;5055846;28;20456;-76
2021/08/23 08:05:12;;;;;;;35.90;30.77;;;22.60;85.80;;;;;;5055846;28;20966;-76
2021/08/23 08:07:40;;;;;;;36.23;32.57;;;22.60;85.10;;;;;;5055740;28;20450;-76
2021/08/23 08:10:08;;;;;;;35.63;31.90;;;22.60;84.70;;;;;;5055687;28;20967;-76
2021/08/23 08:12:35;;;;;;;32.60;29.40;;;22.60;84.10;;;;;;5055680;28;20959;-75
2021/08/23 08:15:02;;;;;;;37.17;32.73;;;22.60;83.90;;;;;;5056691;28;20484;-76
2021/08/23 08:17:29;;;;;;;36.93;33.10;;;22.50;83.90;;;;;;5055874;28;20481;-75
2021/08/23 08:19:55;;;;;;;34.77;31.07;;;22.50;84.50;;;;;;5055782;28;20465;-76
2021/08/23 08:22:22;;;;;;;31.63;28.43;;;22.40;84.20;;;;;;5055504;28;20446;-75
2021/08/23 08:24:51;;;;;;;34.87;31.33;;;22.40;84.50;;;;;;5055729;28;20445;-75
2021/08/23 08:27:17;;;;;;;31.73;28.47;;;22.40;84.40;;;;;;5055992;28;20441;-75
2021/08/23 08:29:44;;;;;;;32.57;29.37;;;22.30;84.70;;;;;;5055548;28;20465;-75
2021/08/23 08:32:11;;;;;;;30.07;27.10;;;22.30;86.30;;;;;;5055799;28;20453;-75
2021/08/23 08:34:38;;;;;;;29.47;26.67;;;22.30;85.90;;;;;;5055506;28;20473;-75
2021/08/23 08:37:05;;;;;;;28.47;25.57;;;22.20;85.90;;;;;;5055542;28;20858;-75
2021/08/23 08:39:32;;;;;;;26.87;24.17;;;22.20;86.30;;;;;;5055093;28;20983;-75
2021/08/23 08:42:00;;;;;;;26.30;23.80;;;22.20;86.30;;;;;;5055457;28;20445;-75
2021/08/23 08:44:28;;;;;;;24.57;22.20;;;22.20;86.00;;;;;;5055154;28;20472;-75
2021/08/23 08:46:57;;;;;;;24.13;21.67;;;22.20;86.10;;;;;;5055333;28;20445;-75
2021/08/23 08:49:24;;;;;;;22.87;20.77;;;22.20;86.00;;;;;;5055220;28;20570;-75
2021/08/23 08:51:52;;;;;;;22.57;20.47;;;22.20;85.60;;;;;;5055252;28;20449;-76
2021/08/23 08:54:18;;;;;;;24.13;21.93;;;22.30;85.80;;;;;;5055170;28;20534;-75
2021/08/23 08:56:45;;;;;;;20.83;18.87;;;22.30;85.50;;;;;;5055163;28;20446;-75
2021/08/23 08:59:14;;;;;;;20.70;18.80;;;22.40;85.70;;;;;;5054884;28;20480;-76
2021/08/23 09:01:43;;;;;;;20.73;18.83;;;22.40;85.20;;;;;;5054768;28;20985;-75
2021/08/23 09:04:10;;;;;;;20.10;18.20;;;22.50;85.00;;;;;;5055059;28;20442;-76
2021/08/23 09:06:41;;;;;;;20.93;18.83;;;22.60;84.30;;;;;;5055305;28;20450;-75
2021/08/23 09:09:13;;;;;;;19.20;17.40;;;22.70;83.80;;;;;;5054535;28;21002;-75
2021/08/23 09:11:41;;;;;;;19.23;17.53;;;22.80;83.40;;;;;;5054884;28;20444;-75
2021/08/23 09:14:10;;;;;;;18.23;16.43;;;22.90;83.00;;;;;;5054069;28;20448;-75
2021/08/23 09:16:40;;;;;;;18.77;17.20;;;23.00;82.40;;;;;;5054802;28;20830;-75
2021/08/23 09:19:07;;;;;;;16.20;14.80;;;22.90;82.40;;;;;;5054306;28;20836;-75
2021/08/23 09:21:36;;;;;;;16.57;14.97;;;22.90;82.80;;;;;;5054344;28;20840;-75
2021/08/23 09:24:06;;;;;;;18.37;13.83;;;22.80;83.10;;;;;;5054608;28;20452;-76
2021/08/23 09:26:35;;;;;;;15.40;14.07;;;22.80;83.30;;;;;;5054613;28;20470;-76
2021/08/23 09:29:04;;;;;;;16.60;15.10;;;22.90;83.50;;;;;;5054416;28;20480;-75
2021/08/23 09:31:33;;;;;;;15.70;14.40;;;23.00;83.40;;;;;;5054459;28;20449;-75
2021/08/23 09:34:04;;;;;;;15.50;14.10;;;23.20;83.10;;;;;;5054379;28;20449;-76
2021/08/23 09:36:31;;;;;;;15.87;14.03;;;23.30;82.30;;;;;;5054116;28;20900;-76
2021/08/23 09:39:04;;;;;;;15.10;13.77;;;23.40;81.70;;;;;;5054246;28;20462;-76
2021/08/23 09:41:32;;;;;;;13.83;12.63;;;23.40;81.10;;;;;;5054374;28;20825;-75
2021/08/23 09:44:01;;;;;;;15.30;14.10;;;23.40;80.70;;;;;;5054265;28;20492;-76
2021/08/23 09:46:28;;;;;;;14.60;13.30;;;23.40;80.20;;;;;;5054217;28;20442;-76
2021/08/23 09:48:55;;;;;;;14.57;13.33;;;23.60;79.90;;;;;;5054055;28;20863;-75
2021/08/23 09:51:29;;;;;;;16.43;15.20;;;23.80;79.40;;;;;;5054061;28;20446;-76
2021/08/23 09:54:10;;;;;;;14.83;13.63;;;23.80;78.30;;;;;;5054106;28;20448;-76
2021/08/23 09:56:42;;;;;;;17.93;16.43;;;23.80;78.40;;;;;;5054056;28;20571;-76
2021/08/23 09:59:12;;;;;;;16.70;15.40;;;23.90;77.20;;;;;;5053684;28;20469;-76
2021/08/23 10:01:39;;;;;;;17.23;15.83;;;23.90;76.90;;;;;;5053689;28;20465;-76
2021/08/23 10:04:06;;;;;;;16.80;15.50;;;23.90;76.60;;;;;;5053891;28;20442;-76
2021/08/23 10:06:37;;;;;;;17.77;16.30;;;23.80;76.40;;;;;;5053815;28;20453;-76
2021/08/23 10:09:05;;;;;;;19.90;17.90;;;23.80;76.80;;;;;;5053786;28;20480;-76
2021/08/23 10:11:32;;;;;;;16.90;15.47;;;23.80;76.40;;;;;;5053739;28;20452;-76
2021/08/23 10:13:59;;;;;;;20.80;18.90;;;23.80;76.60;;;;;;5053785;28;20458;-76
2021/08/23 10:16:27;;;;;;;16.10;14.53;;;23.90;76.30;;;;;;5053633;28;20484;-76
2021/08/23 10:18:54;;;;;;;14.37;13.27;;;24.10;75.50;;;;;;5053591;28;20466;-76
2021/08/23 10:21:21;;;;;;;17.40;16.00;;;24.40;75.40;;;;;;5053665;28;20441;-76
2021/08/23 10:23:50;;;;;;;17.83;16.43;;;25.00;75.00;;;;;;5053592;28;20444;-76
2021/08/23 10:26:17;;;;;;;16.80;15.37;;;25.60;71.60;;;;;;5053920;28;20441;-76
2021/08/23 10:28:47;;;;;;;14.43;13.40;;;25.80;67.80;;;;;;5053452;28;20472;-76
2021/08/23 10:31:15;;;;;;;14.17;12.90;;;25.90;67.00;;;;;;5053291;28;20425;-76
2021/08/23 10:33:43;;;;;;;12.63;11.63;;;26.30;66.20;;;;;;5053415;28;20448;-76
2021/08/23 10:36:13;;;;;;;15.67;14.17;;;26.70;64.10;;;;;;5053371;28;20509;-76
2021/08/23 10:38:40;;;;;;;13.90;12.83;;;27.10;62.10;;;;;;5053320;28;20466;-76
2021/08/23 10:41:10;;;;;;;15.57;14.37;;;27.30;60.30;;;;;;5053420;28;20499;-76
2021/08/23 10:43:45;;;;;;;14.67;13.37;;;27.60;59.70;;;;;;5053602;28;20452;-76
2021/08/23 10:46:27;;;;;;;15.00;13.70;;;27.70;58.80;;;;;;5053373;28;20453;-76
2021/08/23 10:48:55;;;;;;;14.63;12.67;;;27.50;58.40;;;;;;5053247;28;20466;-76
2021/08/23 10:51:30;;;;;;;13.90;12.60;;;27.20;58.30;;;;;;5053327;28;20441;-76
2021/08/23 10:53:57;;;;;;;15.10;13.90;;;27.00;58.90;;;;;;5053325;28;20445;-76
2021/08/23 10:56:36;;;;;;;15.07;13.80;;;26.80;59.20;;;;;;5052869;28;20473;-76
2021/08/23 10:59:13;;;;;;;13.70;12.57;;;26.90;59.40;;;;;;5053039;28;20557;-76
2021/08/23 11:01:40;;;;;;;13.93;12.73;;;27.70;58.60;;;;;;5053195;28;20476;-76
2021/08/23 11:04:08;;;;;;;13.50;12.30;;;28.80;56.30;;;;;;5053118;28;20445;-76
2021/08/23 11:06:37;;;;;;;12.80;11.73;;;29.30;53.30;;;;;;5053200;28;20448;-76
2021/08/23 11:09:09;;;;;;;12.20;11.27;;;29.50;52.40;;;;;;5053606;28;20564;-76
2021/08/23 11:11:38;;;;;;;11.20;10.20;;;29.60;52.40;;;;;;5053107;28;20449;-76
2021/08/23 11:14:17;;;;;;;12.03;11.03;;;29.70;52.20;;;;;;5052764;28;20974;-76
2021/08/23 11:16:50;;;;;;;14.50;13.30;;;30.50;51.00;;;;;;5053044;28;20465;-76
2021/08/23 11:19:17;;;;;;;11.90;11.00;;;30.90;49.00;;;;;;5053024;28;20823;-76
2021/08/23 11:21:47;;;;;;;11.90;10.80;;;30.90;48.20;;;;;;5053017;28;20448;-76
2021/08/23 11:24:18;;;;;;;13.10;12.10;;;30.80;48.30;;;;;;5054072;28;20445;-76
2021/08/23 11:26:55;;;;;;;12.33;11.43;;;30.60;48.60;;;;;;5052942;28;20499;-77
2021/08/23 11:29:22;;;;;;;12.43;11.43;;;30.30;48.60;;;;;;5052938;28;20556;-77
2021/08/23 11:31:56;;;;;;;17.20;13.20;;;29.90;49.40;;;;;;5052746;28;20843;-77
2021/08/23 11:34:24;;;;;;;15.43;14.13;;;29.60;50.50;;;;;;5052774;28;20861;-76
2021/08/23 11:36:51;;;;;;;13.10;12.00;;;29.20;51.00;;;;;;5054582;28;20582;-76
2021/08/23 11:39:18;;;;;;;12.83;11.67;;;29.00;51.50;;;;;;5056532;28;20472;-76
2021/08/23 11:41:45;;;;;;;12.00;11.00;;;28.80;52.40;;;;;;5056257;28;20448;-76
2021/08/23 11:44:13;;;;;;;14.70;10.10;;;28.60;53.20;;;;;;5056572;28;20450;-76
2021/08/23 11:46:39;;;;;;;10.83;9.73;;;28.50;53.20;;;;;;5056161;28;20442;-76
2021/08/23 11:49:06;;;;;;;10.33;9.53;;;28.50;53.00;;;;;;5056371;28;20536;-76
2021/08/23 11:51:35;;;;;;;11.70;10.63;;;28.40;53.10;;;;;;5056376;28;20446;-76
2021/08/23 11:54:04;;;;;;;12.67;11.53;;;28.20;53.30;;;;;;5056378;28;20452;-76
2021/08/23 11:56:31;;;;;;;12.40;11.30;;;28.00;53.80;;;;;;5056370;28;20484;-76
2021/08/23 11:58:58;;;;;;;10.70;9.77;;;27.70;53.90;;;;;;5056100;28;20457;-76
2021/08/23 12:01:26;;;;;;;11.10;10.20;;;27.60;54.60;;;;;;5056297;28;20436;-76
2021/08/23 12:03:58;;;;;;;10.67;9.67;;;28.00;55.00;;;;;;5056190;28;20452;-76
2021/08/23 12:06:33;;;;;;;10.77;9.87;;;28.90;53.70;;;;;;5056170;28;20437;-76
2021/08/23 12:09:01;;;;;;;9.73;8.83;;;29.90;51.60;;;;;;5056295;28;20457;-76
2021/08/23 12:11:28;;;;;;;10.43;9.43;;;30.90;49.00;;;;;;5056037;28;20445;-76
2021/08/23 12:13:55;;;;;;;10.27;9.43;;;31.70;47.40;;;;;;5055968;28;20449;-76
2021/08/23 12:16:34;;;;;;;9.70;8.50;;;32.70;45.00;;;;;;5055949;28;20480;-77
2021/08/23 12:19:08;;;;;;;10.50;9.70;;;33.70;42.30;;;;;;5055901;28;20460;-77
2021/08/23 12:21:35;;;;;;;10.57;9.87;;;34.10;40.50;;;;;;5055635;28;20903;-76
2021/08/23 12:24:03;;;;;;;11.40;10.20;;;34.40;40.00;;;;;;5055886;28;20498;-77
2021/08/23 12:26:35;;;;;;;10.93;10.23;;;34.90;39.00;;;;;;5055796;28;20437;-77
2021/08/23 12:29:05;;;;;;;11.70;10.70;;;35.70;37.60;;;;;;5055732;28;20469;-77
2021/08/23 12:31:34;;;;;;;9.93;9.23;;;35.70;35.60;;;;;;5055641;28;20468;-77
2021/08/23 12:34:11;;;;;;;11.70;10.50;;;35.20;36.20;;;;;;5055381;28;20844;-77